sensor_id;sensor_type;location;lat;lon;timestamp;temperature;humidity
13802;DHT22;6972;51.518;6.918;2022-08-01T01:00:39;19.60;99.90
13802;DHT22;6972;51.518;6.918;2022-08-01T01:05:35;19.50;99.90
13802;DHT22;6972;51.518;6.918;2022-08-01T01:08:13;18.40;99.90
13802;DHT22;6972;51.518;6.918;2022-08-01T01:13:16;19.40;99.90
13802;DHT22;6972;51.518;6.918;2022-08-01T01:16:11;19.40;99.90
13802;DHT22;6972;51.518;6.918;2022-08-01T01:18:46;19.40;99.90
13802;DHT22;6972;51.518;6.918;2022-08-01T01:24:28;19.50;99.90
13802;DHT22;6972;51.518;6.918;2022-08-01T01:32:04;19.40;99.90
13802;DHT22;6972;51.518;6.918;2022-08-01T01:34:35;19.40;99.90
13802;DHT22;6972;51.518;6.918;2022-08-01T01:37:07;19.40;99.90
13802;DHT22;6972;51.518;6.918;2022-08-01T01:39:38;19.40;99.90
13802;DHT22;6972;51.518;6.918;2022-08-01T01:44:34;19.40;99.90
13802;DHT22;6972;51.518;6.918;2022-08-01T01:51:54;19.50;99.90
13802;DHT22;6972;51.518;6.918;2022-08-01T01:54:23;19.40;99.90
13802;DHT22;6972;51.518;6.918;2022-08-01T01:56:51;19.40;99.90
13802;DHT22;6972;51.518;6.918;2022-08-01T01:59:21;19.50;99.90
13802;DHT22;6972;51.518;6.918;2022-08-01T02:01:51;19.40;99.90
13802;DHT22;6972;51.518;6.918;2022-08-01T02:04:19;19.40;99.90
13802;DHT22;6972;51.518;6.918;2022-08-01T02:06:50;19.40;99.90
13802;DHT22;6972;51.518;6.918;2022-08-01T02:09:19;19.40;99.90
13802;DHT22;6972;51.518;6.918;2022-08-01T02:11:49;19.40;99.90
13802;DHT22;6972;51.518;6.918;2022-08-01T02:14:17;19.30;99.90
13802;DHT22;6972;51.518;6.918;2022-08-01T02:16:45;19.30;99.90
13802;DHT22;6972;51.518;6.918;2022-08-01T02:19:11;19.40;99.90
13802;DHT22;6972;51.518;6.918;2022-08-01T02:21:40;19.40;99.90
13802;DHT22;6972;51.518;6.918;2022-08-01T02:24:35;19.40;99.90
13802;DHT22;6972;51.518;6.918;2022-08-01T02:27:06;19.40;99.90
13802;DHT22;6972;51.518;6.918;2022-08-01T02:29:52;19.40;99.90
13802;DHT22;6972;51.518;6.918;2022-08-01T02:32:41;19.30;99.90
13802;DHT22;6972;51.518;6.918;2022-08-01T02:35:11;19.40;99.90
13802;DHT22;6972;51.518;6.918;2022-08-01T02:37:39;19.50;99.90
13802;DHT22;6972;51.518;6.918;2022-08-01T02:40:08;19.40;99.90
13802;DHT22;6972;51.518;6.918;2022-08-01T02:42:39;19.30;99.90
13802;DHT22;6972;51.518;6.918;2022-08-01T02:45:09;19.40;99.90
13802;DHT22;6972;51.518;6.918;2022-08-01T02:47:36;19.30;99.90
13802;DHT22;6972;51.518;6.918;2022-08-01T02:50:03;19.20;99.90
13802;DHT22;6972;51.518;6.918;2022-08-01T02:52:30;19.30;99.90
13802;DHT22;6972;51.518;6.918;2022-08-01T02:54:58;19.40;99.90
13802;DHT22;6972;51.518;6.918;2022-08-01T02:57:24;19.30;99.90
13802;DHT22;6972;51.518;6.918;2022-08-01T02:59:52;19.30;99.90
13802;DHT22;6972;51.518;6.918;2022-08-01T03:02:20;19.30;99.90
13802;DHT22;6972;51.518;6.918;2022-08-01T03:04:47;19.20;99.90
13802;DHT22;6972;51.518;6.918;2022-08-01T03:07:15;19.20;99.90
13802;DHT22;6972;51.518;6.918;2022-08-01T03:09:44;19.20;99.90
13802;DHT22;6972;51.518;6.918;2022-08-01T03:12:14;19.20;99.90
13802;DHT22;6972;51.518;6.918;2022-08-01T03:14:42;19.20;99.90
13802;DHT22;6972;51.518;6.918;2022-08-01T03:17:09;19.10;99.90
13802;DHT22;6972;51.518;6.918;2022-08-01T03:19:36;19.10;99.90
13802;DHT22;6972;51.518;6.918;2022-08-01T03:22:09;19.10;99.90
13802;DHT22;6972;51.518;6.918;2022-08-01T03:24:38;19.10;99.90
13802;DHT22;6972;51.518;6.918;2022-08-01T03:27:05;19.00;99.90
13802;DHT22;6972;51.518;6.918;2022-08-01T03:29:32;19.00;99.90
13802;DHT22;6972;51.518;6.918;2022-08-01T03:32:00;19.10;99.90
13802;DHT22;6972;51.518;6.918;2022-08-01T03:34:27;19.10;99.90
13802;DHT22;6972;51.518;6.918;2022-08-01T03:36:59;19.10;99.90
13802;DHT22;6972;51.518;6.918;2022-08-01T03:39:31;19.00;99.90
13802;DHT22;6972;51.518;6.918;2022-08-01T03:42:02;19.00;99.90
13802;DHT22;6972;51.518;6.918;2022-08-01T03:44:32;19.00;99.90
13802;DHT22;6972;51.518;6.918;2022-08-01T03:47:04;19.00;99.90
13802;DHT22;6972;51.518;6.918;2022-08-01T03:49:33;19.00;99.90
13802;DHT22;6972;51.518;6.918;2022-08-01T03:52:04;19.00;99.90
13802;DHT22;6972;51.518;6.918;2022-08-01T03:54:35;19.00;99.90
13802;DHT22;6972;51.518;6.918;2022-08-01T03:59:29;19.00;99.90
13802;DHT22;6972;51.518;6.918;2022-08-01T04:01:55;19.00;99.90
13802;DHT22;6972;51.518;6.918;2022-08-01T04:14:11;18.90;99.90
13802;DHT22;6972;51.518;6.918;2022-08-01T04:21:31;18.90;99.90
13802;DHT22;6972;51.518;6.918;2022-08-01T04:24:08;19.00;99.90
13802;DHT22;6972;51.518;6.918;2022-08-01T04:26:36;19.00;99.90
13802;DHT22;6972;51.518;6.918;2022-08-01T04:29:04;19.00;99.90
13802;DHT22;6972;51.518;6.918;2022-08-01T04:31:31;19.00;99.90
13802;DHT22;6972;51.518;6.918;2022-08-01T04:33:58;19.00;99.90
13802;DHT22;6972;51.518;6.918;2022-08-01T04:36:26;19.00;99.90
13802;DHT22;6972;51.518;6.918;2022-08-01T04:38:58;19.00;99.90
13802;DHT22;6972;51.518;6.918;2022-08-01T04:43:52;19.10;99.90
13802;DHT22;6972;51.518;6.918;2022-08-01T04:46:18;19.00;99.90
13802;DHT22;6972;51.518;6.918;2022-08-01T04:51:15;19.10;99.90
13802;DHT22;6972;51.518;6.918;2022-08-01T05:15:39;19.10;99.90
13802;DHT22;6972;51.518;6.918;2022-08-01T05:18:05;19.20;99.90
13802;DHT22;6972;51.518;6.918;2022-08-01T05:32:42;19.30;99.90
13802;DHT22;6972;51.518;6.918;2022-08-01T05:35:08;19.30;99.90
13802;DHT22;6972;51.518;6.918;2022-08-01T06:31:14;19.90;99.90
13802;DHT22;6972;51.518;6.918;2022-08-01T06:50:44;20.40;99.90
13802;DHT22;6972;51.518;6.918;2022-08-01T07:02:55;20.10;99.90
13802;DHT22;6972;51.518;6.918;2022-08-01T07:15:07;20.50;99.90
13802;DHT22;6972;51.518;6.918;2022-08-01T07:17:39;20.60;99.90
13802;DHT22;6972;51.518;6.918;2022-08-01T07:20:07;20.70;99.90
13802;DHT22;6972;51.518;6.918;2022-08-01T07:34:43;20.70;99.90
13802;DHT22;6972;51.518;6.918;2022-08-01T08:26:11;21.60;99.90
13802;DHT22;6972;51.518;6.918;2022-08-01T08:40:47;22.20;99.90
13802;DHT22;6972;51.518;6.918;2022-08-01T08:45:39;22.40;99.90
13802;DHT22;6972;51.518;6.918;2022-08-01T08:48:06;22.20;99.90
13802;DHT22;6972;51.518;6.918;2022-08-01T08:52:59;22.30;99.90
13802;DHT22;6972;51.518;6.918;2022-08-01T08:55:27;22.40;99.90
13802;DHT22;6972;51.518;6.918;2022-08-01T08:57:54;22.40;99.90
13802;DHT22;6972;51.518;6.918;2022-08-01T09:02:47;22.30;99.90
13802;DHT22;6972;51.518;6.918;2022-08-01T09:10:08;22.30;99.90
13802;DHT22;6972;51.518;6.918;2022-08-01T09:12:37;22.20;99.90
13802;DHT22;6972;51.518;6.918;2022-08-01T09:15:03;22.10;99.90
13802;DHT22;6972;51.518;6.918;2022-08-01T09:17:39;22.20;99.90
13802;DHT22;6972;51.518;6.918;2022-08-01T09:20:05;22.20;99.90
13802;DHT22;6972;51.518;6.918;2022-08-01T09:22:34;22.30;99.90
13802;DHT22;6972;51.518;6.918;2022-08-01T09:25:08;22.30;99.90
13802;DHT22;6972;51.518;6.918;2022-08-01T09:27:36;22.30;99.90
13802;DHT22;6972;51.518;6.918;2022-08-01T09:30:21;22.30;99.90
13802;DHT22;6972;51.518;6.918;2022-08-01T09:35:34;22.50;99.90
13802;DHT22;6972;51.518;6.918;2022-08-01T09:38:22;22.70;99.90
13802;DHT22;6972;51.518;6.918;2022-08-01T09:40:52;22.70;99.90
13802;DHT22;6972;51.518;6.918;2022-08-01T09:43:19;22.90;99.90
13802;DHT22;6972;51.518;6.918;2022-08-01T09:45:45;22.80;99.90
13802;DHT22;6972;51.518;6.918;2022-08-01T09:50:45;22.90;99.90
13802;DHT22;6972;51.518;6.918;2022-08-01T09:53:11;23.00;99.90
13802;DHT22;6972;51.518;6.918;2022-08-01T09:55:38;23.10;99.90
13802;DHT22;6972;51.518;6.918;2022-08-01T10:00:34;23.30;99.90
13802;DHT22;6972;51.518;6.918;2022-08-01T10:05:31;22.30;99.90
13802;DHT22;6972;51.518;6.918;2022-08-01T10:08:02;22.20;99.90
13802;DHT22;6972;51.518;6.918;2022-08-01T10:12:57;22.20;99.90
13802;DHT22;6972;51.518;6.918;2022-08-01T10:15:24;22.10;99.90
13802;DHT22;6972;51.518;6.918;2022-08-01T10:17:56;21.90;99.90
13802;DHT22;6972;51.518;6.918;2022-08-01T10:20:26;22.10;99.90
13802;DHT22;6972;51.518;6.918;2022-08-01T10:22:54;22.20;99.90
13802;DHT22;6972;51.518;6.918;2022-08-01T10:27:53;22.70;99.90
13802;DHT22;6972;51.518;6.918;2022-08-01T10:35:13;23.10;99.90
13802;DHT22;6972;51.518;6.918;2022-08-01T10:40:14;22.60;99.90
13802;DHT22;6972;51.518;6.918;2022-08-01T10:42:42;22.40;99.90
13802;DHT22;6972;51.518;6.918;2022-08-01T10:45:13;22.40;99.90
13802;DHT22;6972;51.518;6.918;2022-08-01T10:47:48;22.40;99.90
13802;DHT22;6972;51.518;6.918;2022-08-01T10:57:47;22.70;99.90
13802;DHT22;6972;51.518;6.918;2022-08-01T11:00:21;22.90;99.90
13802;DHT22;6972;51.518;6.918;2022-08-01T11:03:00;22.90;99.90
13802;DHT22;6972;51.518;6.918;2022-08-01T11:05:32;22.90;99.90
13802;DHT22;6972;51.518;6.918;2022-08-01T11:08:01;23.20;99.90
13802;DHT22;6972;51.518;6.918;2022-08-01T11:15:22;23.80;99.90
13802;DHT22;6972;51.518;6.918;2022-08-01T11:17:53;24.00;99.90
13802;DHT22;6972;51.518;6.918;2022-08-01T11:35:35;23.80;99.90
13802;DHT22;6972;51.518;6.918;2022-08-01T11:38:27;23.80;99.90
13802;DHT22;6972;51.518;6.918;2022-08-01T11:41:25;23.70;99.90
13802;DHT22;6972;51.518;6.918;2022-08-01T11:44:00;23.80;99.90
13802;DHT22;6972;51.518;6.918;2022-08-01T11:57:29;23.70;99.90
13802;DHT22;6972;51.518;6.918;2022-08-01T11:59:57;23.40;99.90
13802;DHT22;6972;51.518;6.918;2022-08-01T12:02:31;23.50;99.90
13802;DHT22;6972;51.518;6.918;2022-08-01T12:05:07;23.50;99.90
13802;DHT22;6972;51.518;6.918;2022-08-01T12:07:35;23.80;99.90
13802;DHT22;6972;51.518;6.918;2022-08-01T12:12:28;24.30;99.90
13802;DHT22;6972;51.518;6.918;2022-08-01T12:14:56;24.30;99.90
13802;DHT22;6972;51.518;6.918;2022-08-01T12:17:49;24.50;99.90
13802;DHT22;6972;51.518;6.918;2022-08-01T12:20:19;24.70;99.90
13802;DHT22;6972;51.518;6.918;2022-08-01T12:25:16;24.30;99.90
13802;DHT22;6972;51.518;6.918;2022-08-01T12:27:44;24.30;99.90
13802;DHT22;6972;51.518;6.918;2022-08-01T12:30:13;24.30;99.90
13802;DHT22;6972;51.518;6.918;2022-08-01T12:32:40;24.30;99.90
13802;DHT22;6972;51.518;6.918;2022-08-01T12:37:38;23.90;99.90
13802;DHT22;6972;51.518;6.918;2022-08-01T12:40:16;24.00;99.90
13802;DHT22;6972;51.518;6.918;2022-08-01T12:42:44;24.00;99.90
13802;DHT22;6972;51.518;6.918;2022-08-01T12:45:14;24.00;99.90
13802;DHT22;6972;51.518;6.918;2022-08-01T12:47:41;23.90;99.90
13802;DHT22;6972;51.518;6.918;2022-08-01T12:50:12;24.00;99.90
13802;DHT22;6972;51.518;6.918;2022-08-01T12:55:06;24.20;99.90
13802;DHT22;6972;51.518;6.918;2022-08-01T13:02:34;24.80;99.90
13802;DHT22;6972;51.518;6.918;2022-08-01T13:07:49;24.30;99.90
13802;DHT22;6972;51.518;6.918;2022-08-01T13:10:28;24.20;99.90
13802;DHT22;6972;51.518;6.918;2022-08-01T13:12:58;24.20;99.90
13802;DHT22;6972;51.518;6.918;2022-08-01T13:15:36;24.10;99.90
13802;DHT22;6972;51.518;6.918;2022-08-01T13:18:23;23.90;99.90
13802;DHT22;6972;51.518;6.918;2022-08-01T13:23:17;24.10;99.90
13802;DHT22;6972;51.518;6.918;2022-08-01T13:25:49;24.30;99.90
13802;DHT22;6972;51.518;6.918;2022-08-01T13:28:20;24.30;99.90
13802;DHT22;6972;51.518;6.918;2022-08-01T13:31:02;24.50;99.90
13802;DHT22;6972;51.518;6.918;2022-08-01T13:33:40;24.50;99.90
13802;DHT22;6972;51.518;6.918;2022-08-01T14:00:47;23.90;99.90
13802;DHT22;6972;51.518;6.918;2022-08-01T14:03:13;24.10;99.90
13802;DHT22;6972;51.518;6.918;2022-08-01T14:05:38;24.30;99.90
13802;DHT22;6972;51.518;6.918;2022-08-01T14:15:24;24.10;99.90
13802;DHT22;6972;51.518;6.918;2022-08-01T14:25:11;24.00;99.90
13802;DHT22;6972;51.518;6.918;2022-08-01T14:30:05;24.00;99.90
13802;DHT22;6972;51.518;6.918;2022-08-01T14:32:32;24.00;99.90
13802;DHT22;6972;51.518;6.918;2022-08-01T14:56:56;24.40;99.90
13802;DHT22;6972;51.518;6.918;2022-08-01T15:04:14;24.80;99.90
13802;DHT22;6972;51.518;6.918;2022-08-01T15:11:32;24.80;99.90
13802;DHT22;6972;51.518;6.918;2022-08-01T15:16:42;25.00;99.90
13802;DHT22;6972;51.518;6.918;2022-08-01T15:45:57;24.70;99.90
13802;DHT22;6972;51.518;6.918;2022-08-01T16:00:34;26.30;99.90
13802;DHT22;6972;51.518;6.918;2022-08-01T16:22:28;25.90;99.90
13802;DHT22;6972;51.518;6.918;2022-08-01T16:37:04;30.50;99.90
13802;DHT22;6972;51.518;6.918;2022-08-01T16:41:56;29.60;99.90
13802;DHT22;6972;51.518;6.918;2022-08-01T16:44:22;28.60;99.90
13802;DHT22;6972;51.518;6.918;2022-08-01T16:46:48;28.20;99.90
13802;DHT22;6972;51.518;6.918;2022-08-01T16:51:40;27.20;99.90
13802;DHT22;6972;51.518;6.918;2022-08-01T16:54:06;26.50;99.90
13802;DHT22;6972;51.518;6.918;2022-08-01T17:03:50;28.90;99.90
13802;DHT22;6972;51.518;6.918;2022-08-01T17:25:44;25.40;99.90
13802;DHT22;6972;51.518;6.918;2022-08-01T17:30:36;25.40;99.90
13802;DHT22;6972;51.518;6.918;2022-08-01T17:37:56;25.10;99.90
13802;DHT22;6972;51.518;6.918;2022-08-01T17:47:41;24.60;99.90
13802;DHT22;6972;51.518;6.918;2022-08-01T17:50:08;24.40;99.90
13802;DHT22;6972;51.518;6.918;2022-08-01T17:55:05;24.40;99.90
13802;DHT22;6972;51.518;6.918;2022-08-01T18:02:24;24.30;99.90
13802;DHT22;6972;51.518;6.918;2022-08-01T18:07:19;24.00;99.90
13802;DHT22;6972;51.518;6.918;2022-08-01T18:09:45;24.00;99.90
13802;DHT22;6972;51.518;6.918;2022-08-01T18:12:12;23.70;99.90
13802;DHT22;6972;51.518;6.918;2022-08-01T18:14:40;23.60;99.90
13802;DHT22;6972;51.518;6.918;2022-08-01T18:29:17;22.70;99.90
13802;DHT22;6972;51.518;6.918;2022-08-01T18:39:06;22.50;99.90
13802;DHT22;6972;51.518;6.918;2022-08-01T18:41:33;22.50;99.90
13802;DHT22;6972;51.518;6.918;2022-08-01T18:44:00;22.40;99.90
13802;DHT22;6972;51.518;6.918;2022-08-01T18:56:10;22.10;99.90
13802;DHT22;6972;51.518;6.918;2022-08-01T18:58:40;22.10;99.90
13802;DHT22;6972;51.518;6.918;2022-08-01T19:01:07;21.90;99.90
13802;DHT22;6972;51.518;6.918;2022-08-01T19:03:33;21.90;99.90
13802;DHT22;6972;51.518;6.918;2022-08-01T19:05:59;21.70;99.90
13802;DHT22;6972;51.518;6.918;2022-08-01T19:10:51;21.50;99.90
13802;DHT22;6972;51.518;6.918;2022-08-01T19:13:16;21.60;99.90
13802;DHT22;6972;51.518;6.918;2022-08-01T19:15:42;21.50;99.90
13802;DHT22;6972;51.518;6.918;2022-08-01T19:18:08;21.50;99.90
13802;DHT22;6972;51.518;6.918;2022-08-01T19:20:38;21.30;99.90
13802;DHT22;6972;51.518;6.918;2022-08-01T19:23:07;21.20;99.90
13802;DHT22;6972;51.518;6.918;2022-08-01T19:25:55;21.10;99.90
13802;DHT22;6972;51.518;6.918;2022-08-01T19:28:23;21.10;99.90
13802;DHT22;6972;51.518;6.918;2022-08-01T19:30:51;21.00;99.90
13802;DHT22;6972;51.518;6.918;2022-08-01T19:33:18;20.90;99.90
13802;DHT22;6972;51.518;6.918;2022-08-01T19:35:45;20.90;99.90
13802;DHT22;6972;51.518;6.918;2022-08-01T19:40:40;20.60;99.90
13802;DHT22;6972;51.518;6.918;2022-08-01T19:43:09;20.60;99.90
13802;DHT22;6972;51.518;6.918;2022-08-01T19:45:34;20.50;99.90
13802;DHT22;6972;51.518;6.918;2022-08-01T19:48:00;20.60;99.90
13802;DHT22;6972;51.518;6.918;2022-08-01T19:50:28;20.50;99.90
13802;DHT22;6972;51.518;6.918;2022-08-01T19:52:55;20.40;99.90
13802;DHT22;6972;51.518;6.918;2022-08-01T19:55:22;20.50;99.90
13802;DHT22;6972;51.518;6.918;2022-08-01T19:57:51;20.40;99.90
13802;DHT22;6972;51.518;6.918;2022-08-01T20:00:17;20.40;99.90
13802;DHT22;6972;51.518;6.918;2022-08-01T20:02:43;20.30;99.90
13802;DHT22;6972;51.518;6.918;2022-08-01T20:05:10;20.20;99.90
13802;DHT22;6972;51.518;6.918;2022-08-01T20:10:03;20.10;99.90
13802;DHT22;6972;51.518;6.918;2022-08-01T20:12:29;20.20;99.90
13802;DHT22;6972;51.518;6.918;2022-08-01T20:14:55;20.10;99.90
13802;DHT22;6972;51.518;6.918;2022-08-01T20:17:21;19.90;99.90
13802;DHT22;6972;51.518;6.918;2022-08-01T20:19:48;20.00;99.90
13802;DHT22;6972;51.518;6.918;2022-08-01T20:22:17;19.80;99.90
13802;DHT22;6972;51.518;6.918;2022-08-01T20:27:12;19.80;99.90
13802;DHT22;6972;51.518;6.918;2022-08-01T20:34:35;19.60;99.90
13802;DHT22;6972;51.518;6.918;2022-08-01T20:37:08;19.60;99.90
13802;DHT22;6972;51.518;6.918;2022-08-01T20:39:36;19.50;99.90
13802;DHT22;6972;51.518;6.918;2022-08-01T20:42:05;19.50;99.90
13802;DHT22;6972;51.518;6.918;2022-08-01T20:44:34;19.40;99.90
13802;DHT22;6972;51.518;6.918;2022-08-01T20:47:01;19.30;99.90
13802;DHT22;6972;51.518;6.918;2022-08-01T20:51:53;19.30;99.90
13802;DHT22;6972;51.518;6.918;2022-08-01T20:54:19;19.50;99.90
13802;DHT22;6972;51.518;6.918;2022-08-01T20:56:50;19.30;99.90
13802;DHT22;6972;51.518;6.918;2022-08-01T20:59:37;19.10;99.90
13802;DHT22;6972;51.518;6.918;2022-08-01T21:05:07;19.10;99.90
13802;DHT22;6972;51.518;6.918;2022-08-01T21:07:56;19.10;99.90
13802;DHT22;6972;51.518;6.918;2022-08-01T21:10:27;19.00;99.90
13802;DHT22;6972;51.518;6.918;2022-08-01T21:13:05;19.10;99.90
13802;DHT22;6972;51.518;6.918;2022-08-01T21:18:09;19.00;99.90
13802;DHT22;6972;51.518;6.918;2022-08-01T21:20:41;19.00;99.90
13802;DHT22;6972;51.518;6.918;2022-08-01T21:25:34;18.90;99.90
13802;DHT22;6972;51.518;6.918;2022-08-01T21:28:00;18.90;99.90
13802;DHT22;6972;51.518;6.918;2022-08-01T21:30:29;18.80;99.90
13802;DHT22;6972;51.518;6.918;2022-08-01T21:35:24;18.80;99.90
13802;DHT22;6972;51.518;6.918;2022-08-01T21:40:21;18.70;99.90
13802;DHT22;6972;51.518;6.918;2022-08-01T21:42:49;18.70;99.90
13802;DHT22;6972;51.518;6.918;2022-08-01T21:45:18;18.60;99.90
13802;DHT22;6972;51.518;6.918;2022-08-01T21:47:44;18.70;99.90
13802;DHT22;6972;51.518;6.918;2022-08-01T21:50:13;18.60;99.90
13802;DHT22;6972;51.518;6.918;2022-08-01T21:52:47;18.60;99.90
13802;DHT22;6972;51.518;6.918;2022-08-01T21:58:10;18.50;99.90
13802;DHT22;6972;51.518;6.918;2022-08-01T22:00:39;18.40;99.90
13802;DHT22;6972;51.518;6.918;2022-08-01T22:03:24;18.40;99.90
13802;DHT22;6972;51.518;6.918;2022-08-01T22:05:51;18.30;99.90
13802;DHT22;6972;51.518;6.918;2022-08-01T22:08:34;18.30;99.90
13802;DHT22;6972;51.518;6.918;2022-08-01T22:11:05;19.50;99.90
13802;DHT22;6972;51.518;6.918;2022-08-01T22:13:33;18.20;99.90
13802;DHT22;6972;51.518;6.918;2022-08-01T22:16:02;18.20;99.90
13802;DHT22;6972;51.518;6.918;2022-08-01T22:18:31;18.20;99.90
13802;DHT22;6972;51.518;6.918;2022-08-01T22:20:57;18.10;99.90
13802;DHT22;6972;51.518;6.918;2022-08-01T22:23:23;18.00;99.90
13802;DHT22;6972;51.518;6.918;2022-08-01T22:25:53;18.10;99.90
13802;DHT22;6972;51.518;6.918;2022-08-01T22:28:25;18.00;99.90
13802;DHT22;6972;51.518;6.918;2022-08-01T22:30:51;18.00;99.90
13802;DHT22;6972;51.518;6.918;2022-08-01T22:33:19;17.90;99.90
13802;DHT22;6972;51.518;6.918;2022-08-01T22:35:47;18.00;99.90
13802;DHT22;6972;51.518;6.918;2022-08-01T22:38:16;17.90;99.90
13802;DHT22;6972;51.518;6.918;2022-08-01T22:40:51;17.90;99.90
13802;DHT22;6972;51.518;6.918;2022-08-01T22:43:38;17.80;99.90
13802;DHT22;6972;51.518;6.918;2022-08-01T22:48:44;17.70;99.90
13802;DHT22;6972;51.518;6.918;2022-08-01T22:58:40;17.50;99.90
13802;DHT22;6972;51.518;6.918;2022-08-01T23:01:12;17.50;99.90
13802;DHT22;6972;51.518;6.918;2022-08-01T23:03:41;17.40;99.90
13802;DHT22;6972;51.518;6.918;2022-08-01T23:06:13;17.40;99.90
13802;DHT22;6972;51.518;6.918;2022-08-01T23:08:45;17.40;99.90
13802;DHT22;6972;51.518;6.918;2022-08-01T23:11:11;17.30;99.90
13802;DHT22;6972;51.518;6.918;2022-08-01T23:13:37;17.20;99.90
13802;DHT22;6972;51.518;6.918;2022-08-01T23:18:29;17.20;99.90
13802;DHT22;6972;51.518;6.918;2022-08-01T23:21:00;17.10;99.90
13802;DHT22;6972;51.518;6.918;2022-08-01T23:23:27;17.10;99.90
13802;DHT22;6972;51.518;6.918;2022-08-01T23:25:54;17.10;99.90
13802;DHT22;6972;51.518;6.918;2022-08-01T23:28:20;17.00;99.90
13802;DHT22;6972;51.518;6.918;2022-08-01T23:30:46;17.10;99.90
13802;DHT22;6972;51.518;6.918;2022-08-01T23:38:05;17.10;99.90
13802;DHT22;6972;51.518;6.918;2022-08-01T23:40:32;17.10;99.90
13802;DHT22;6972;51.518;6.918;2022-08-01T23:42:59;17.10;99.90
13802;DHT22;6972;51.518;6.918;2022-08-01T23:47:51;16.90;99.90
13802;DHT22;6972;51.518;6.918;2022-08-01T23:52:43;17.00;99.90
13802;DHT22;6972;51.518;6.918;2022-08-01T23:55:09;16.90;99.90
13802;DHT22;6972;51.518;6.918;2022-08-01T23:57:34;16.90;99.90
